Latest Weather Observations for Gelantipy

IDV60801

Issued at 7:32 am EST Tuesday 7 July 2020 (issued every 10 minutes, with the page automatically refreshed every 10 minutes)

About weather observations | Map of weather stations | Latest weather observations for VIC | Other Formats
Station Details ID: 084142 Name: GELANTIPY Lat: -37.22 Lon: 148.26 Height: 755.0 m
Data from the previous 72 hours. | See also: Recent months at Gelantipy
Date/Time
EST
Temp
°C
App
Temp
°C
Dew
Point
°C
Rel
Hum
%
Delta-T
°C
Wind Press
QNH
hPa
Press
MSL
hPa
Rain since
9am
mm
Dir  Spd
km/h
Gust
km/h
Spd
kts
Gust
kts
07/07:30am 5.3 2.9 5.3 100 0.0 SW 7 11 4 6 1029.9 1031.2 1.0
07/07:00am 5.3 2.9 5.3 100 0.0 SW 7 11 4 6 1029.5 1030.8 0.8
07/06:30am 5.3 2.5 5.3 100 0.0 SW 9 13 5 7 1029.2 1030.5 0.8
07/06:00am 5.2 2.8 5.2 100 0.0 SSW 7 9 4 5 1029.2 1030.5 0.8
07/05:30am 5.2 2.8 5.2 100 0.0 SSW 7 11 4 6 1028.9 1030.2 0.6
07/05:00am 5.1 1.5 5.1 100 0.0 SW 13 17 7 9 1028.9 1030.2 0.4
07/04:30am 5.1 1.9 5.1 100 0.0 SW 11 22 6 12 1028.9 1030.2 0.4
07/04:00am 5.1 1.1 5.1 100 0.0 SW 15 20 8 11 1028.8 1030.1 0.4
07/03:30am 5.1 1.9 5.1 100 0.0 SW 11 17 6 9 1028.9 1030.2 0.4
07/03:00am 5.2 1.2 5.1 99 0.0 SW 15 24 8 13 1028.8 1030.1 0.0
07/02:30am 5.2 1.2 5.1 99 0.0 SW 15 20 8 11 1029.0 1030.3 0.0
07/02:00am 5.2 1.2 4.9 98 0.1 SW 15 20 8 11 1029.0 1030.3 0.0
07/01:30am 5.5 0.7 4.8 95 0.3 SW 19 28 10 15 1029.0 1030.3 0.0
07/01:00am 5.9 2.2 4.4 90 0.7 SSW 13 22 7 12 1028.9 1030.2 0.0
07/12:30am 6.1 2.4 4.3 88 0.8 SSW 13 20 7 11 1029.0 1030.3 0.0
07/12:00am 6.1 3.1 4.1 87 0.9 SSW 9 17 5 9 1029.0 1030.3 0.0
 
Date/Time
EST
Temp
°C
App
Temp
°C
Dew
Point
°C
Rel
Hum
%
Delta-T
°C
Wind Press
QNH
hPa
Press
MSL
hPa
Rain since
9am
mm
Dir  Spd
km/h
Gust
km/h
Spd
kts
Gust
kts
06/11:30pm 6.1 3.1 4.3 88 0.8 SSW 9 17 5 9 1028.7 1029.9 0.0
06/11:00pm 6.1 2.7 4.1 87 0.9 SW 11 19 6 10 1028.7 1029.9 0.0
06/10:30pm 6.3 2.9 4.0 85 1.0 SW 11 17 6 9 1028.5 1029.7 0.0
06/10:00pm 6.3 2.9 4.0 85 1.0 SW 11 19 6 10 1028.5 1029.7 0.0
06/09:30pm 6.3 2.1 3.8 84 1.1 SW 15 28 8 15 1028.6 1029.8 0.0
06/09:00pm 6.1 2.2 3.6 84 1.1 SW 13 20 7 11 1028.7 1029.9 0.0
06/08:30pm 5.9 2.4 3.7 86 1.0 SW 11 19 6 10 1028.9 1030.2 0.0
06/08:00pm 6.1 2.3 4.1 87 0.9 SW 13 17 7 9 1029.0 1030.3 0.0
06/07:30pm 6.2 2.5 4.5 89 0.8 SW 13 17 7 9 1028.9 1030.2 0.0
06/07:00pm 6.3 2.6 4.3 87 0.9 SW 13 17 7 9 1028.7 1029.9 0.0
06/06:30pm 6.2 1.4 4.5 89 0.8 SW 19 30 10 16 1028.6 1029.8 0.0
06/06:00pm 6.3 3.0 4.5 88 0.8 SSW 11 19 6 10 1028.1 1029.4 0.0
06/05:30pm 6.5 2.0 4.2 85 1.0 SW 17 26 9 14 1028.0 1029.3 0.0
06/05:00pm 6.7 2.5 3.9 82 1.2 SW 15 24 8 13 1027.8 1029.1 0.0
06/04:30pm 6.7 3.2 3.7 81 1.3 SW 11 17 6 9 1027.6 1028.9 0.0
06/04:00pm 6.8 2.2 3.6 80 1.4 SW 17 22 9 12 1027.4 1028.6 0.0
06/03:30pm 7.0 2.5 4.0 81 1.3 SW 17 24 9 13 1027.4 1028.6 0.0
06/03:00pm 7.2 3.4 3.8 79 1.5 SW 13 20 7 11 1027.3 1028.5 0.0
06/02:30pm 7.3 2.7 3.5 77 1.7 WSW 17 22 9 12 1027.3 1028.5 0.0
06/02:00pm 7.1 2.1 3.5 78 1.6 SW 19 28 10 15 1027.4 1028.6 0.0
06/01:30pm 7.1 2.1 4.4 83 1.2 SW 20 28 11 15 1027.5 1028.7 0.0
06/01:00pm 6.9 1.1 4.2 83 1.2 SW 24 32 13 17 1027.7 1029.0 0.0
06/12:30pm 6.1 0.7 4.3 88 0.8 SW 22 35 12 19 1028.0 1029.3 0.0
06/12:00pm 6.4 2.7 4.7 89 0.8 SSW 13 20 7 11 1028.1 1029.4 0.0
06/11:30am 6.6 1.6 3.8 82 1.2 SW 19 24 10 13 1028.4 1029.6 0.0
06/11:00am 6.4 1.8 3.9 84 1.1 SW 17 30 9 16 1028.6 1029.8 0.0
06/10:30am 5.7 -0.2 3.7 87 0.9 SW 24 33 13 18 1028.8 1030.1 0.0
06/10:00am 6.1 0.9 2.7 79 1.5 SW 19 28 10 15 1028.7 1029.9 0.0
06/09:30am 5.9 0.8 3.1 82 1.2 WSW 19 24 10 13 1028.6 1029.8 0.0
06/09:00am 5.6 0.5 3.3 85 1.0 WSW 19 26 10 14 1028.6 1029.8 0.2
06/08:30am 5.2 1.0 3.9 91 0.6 SW 15 22 8 12 1028.2 1029.5 0.2
06/08:00am 4.9 1.4 3.7 92 0.5 SW 11 20 6 11 1028.0 1029.3 0.2
06/07:30am 4.7 1.3 4.0 95 0.3 SW 11 17 6 9 1027.8 1029.1 0.2
06/07:00am 4.6 0.9 4.2 97 0.2 SW 13 20 7 11 1027.7 1029.0 0.2
06/06:30am 4.7 0.6 4.4 98 0.1 SW 15 20 8 11 1027.2 1028.4 0.0
06/06:00am 5.0 0.9 4.1 94 0.4 SW 15 20 8 11 1026.7 1028.0 0.0
06/05:30am 5.0 0.5 4.1 94 0.4 WSW 17 26 9 14 1026.4 1027.6 0.0
06/05:00am 5.1 0.5 3.9 92 0.5 SW 17 24 9 13 1026.3 1027.5 0.0
06/04:30am 5.5 1.2 3.5 87 0.9 SW 15 22 8 12 1026.1 1027.3 0.0
06/04:00am 5.5 0.9 3.8 89 0.7 SW 17 28 9 15 1026.1 1027.3 0.0
06/03:30am 5.3 1.6 4.3 93 0.4 SW 13 20 7 11 1026.2 1027.4 0.0
06/03:00am 5.8 0.3 3.8 87 0.9 SW 22 30 12 16 1026.1 1027.3 0.0
06/02:30am 5.8 0.9 4.1 89 0.8 SW 19 28 10 15 1026.1 1027.3 0.0
06/02:00am 6.0 1.9 4.2 88 0.8 SW 15 20 8 11 1026.1 1027.3 0.0
06/01:30am 6.0 1.9 4.3 89 0.8 SW 15 26 8 14 1026.0 1027.2 0.0
06/01:00am 6.0 1.9 4.3 89 0.8 SW 15 22 8 12 1026.0 1027.2 0.0
06/12:30am 6.1 2.0 4.4 89 0.8 SW 15 22 8 12 1026.0 1027.2 0.0
06/12:00am 6.0 2.7 4.5 90 0.7 SW 11 17 6 9 1026.1 1027.3 0.0
 
Date/Time
EST
Temp
°C
App
Temp
°C
Dew
Point
°C
Rel
Hum
%
Delta-T
°C
Wind Press
QNH
hPa
Press
MSL
hPa
Rain since
9am
mm
Dir  Spd
km/h
Gust
km/h
Spd
kts
Gust
kts
05/11:30pm 6.0 2.7 4.6 91 0.6 SSW 11 17 6 9 1026.0 1027.2 0.0
05/11:00pm 6.0 2.4 4.8 92 0.5 SW 13 19 7 10 1026.0 1027.2 0.0
05/10:30pm 5.8 1.8 4.9 94 0.4 SW 15 20 8 11 1025.9 1027.1 0.0
05/10:00pm 6.0 2.4 4.8 92 0.5 SW 13 19 7 10 1025.6 1026.8 0.0
05/09:30pm 6.1 2.8 4.7 91 0.6 SW 11 20 6 11 1025.3 1026.5 0.0
05/09:00pm 6.1 3.2 4.7 91 0.6 SSW 9 15 5 8 1025.1 1026.3 0.0
05/08:30pm 5.8 2.9 4.6 92 0.5 SSW 9 13 5 7 1024.9 1026.1 0.0
05/08:00pm 6.0 2.8 5.0 93 0.5 SSW 11 15 6 8 1024.8 1026.0 0.0
05/07:30pm 6.0 2.8 5.0 93 0.5 SW 11 19 6 10 1024.8 1026.0 0.0
05/07:00pm 5.9 3.0 4.9 93 0.5 SSW 9 13 5 7 1024.5 1025.7 0.0
05/06:30pm 5.7 2.8 4.8 94 0.4 SSW 9 13 5 7 1024.3 1025.5 0.0
05/06:00pm 5.3 2.3 4.0 91 0.6 SW 9 11 5 6 1023.7 1024.9 0.0
05/05:30pm 5.7 3.1 4.0 89 0.8 S 7 9 4 5 1023.3 1024.5 0.0
05/05:00pm 6.4 3.4 4.1 85 1.0 SSW 9 13 5 7 1023.0 1024.1 0.0
05/04:30pm 7.4 4.5 4.4 81 1.4 SSW 9 15 5 8 1023.1 1024.2 0.0
05/04:00pm 7.8 4.1 4.6 80 1.5 SW 13 19 7 10 1023.0 1024.1 0.0
05/03:30pm 7.9 3.4 4.3 78 1.6 SW 17 22 9 12 1023.0 1024.1 0.0
05/03:00pm 8.0 3.9 4.6 79 1.6 SW 15 22 8 12 1023.0 1024.1 0.0
05/02:30pm 7.9 3.4 4.1 77 1.7 SW 17 24 9 13 1022.9 1024.0 0.0
05/02:00pm 7.9 4.1 4.1 77 1.7 SSW 13 20 7 11 1022.8 1023.9 0.0
05/01:30pm 7.8 3.6 3.8 76 1.8 SSW 15 24 8 13 1022.8 1023.9 0.0
05/01:00pm 7.9 3.8 4.3 78 1.6 SW 15 24 8 13 1022.8 1023.9 0.0
05/12:30pm 7.7 1.8 4.1 78 1.6 WSW 24 35 13 19 1022.9 1024.0 0.0
05/12:00pm 7.7 2.6 4.1 78 1.6 SW 20 30 11 16 1023.0 1024.1 0.0
05/11:30am 7.6 2.6 4.6 81 1.4 SW 20 33 11 18 1023.2 1024.4 0.0
05/11:00am 6.9 1.5 4.4 84 1.1 SW 22 37 12 20 1023.4 1024.6 0.0
05/10:30am 6.6 1.5 4.1 84 1.1 SW 20 32 11 17 1023.3 1024.5 0.0
05/10:00am 6.5 1.6 4.0 84 1.1 SW 19 30 10 16 1023.2 1024.4 0.0
05/09:30am 6.4 1.2 3.7 83 1.2 SW 20 32 11 17 1022.9 1024.0 0.0
05/09:00am 6.6 0.7 3.8 82 1.2 SW 24 37 13 20 1022.5 1023.7 0.0
05/08:30am 6.2 -0.1 3.5 83 1.2 SW 26 39 14 21 1022.1 1023.3 0.0
05/08:00am 6.0 -0.4 3.3 83 1.2 SW 26 37 14 20 1021.9 1023.0 0.0
05/07:32am 6.0 -0.9 2.8 80 1.4 SW 28 46 15 25 1021.7 1022.8 0.0
05/07:30am 5.9 -1.0 2.7 80 1.4 SW 28 43 15 23 1021.7 1022.8 0.0
05/07:00am 6.0 -0.1 2.8 80 1.4 SW 24 32 13 17 1021.5 1022.6 0.0
05/06:30am 5.9 -0.6 2.9 81 1.3 WSW 26 35 14 19 1021.1 1022.3 0.0
05/06:00am 5.9 -0.9 3.1 82 1.2 SW 28 48 15 26 1020.8 1021.9 0.0
05/05:56am 6.0 -0.4 3.0 81 1.3 SW 26 48 14 26 1020.8 1021.9 0.0
05/05:30am 5.9 1.3 3.9 87 0.9 SW 17 33 9 18 1020.5 1021.6 0.0
05/05:00am 5.9 0.4 3.9 87 0.9 SW 22 39 12 21 1020.2 1021.3 0.0
05/04:30am 6.3 -0.4 3.6 83 1.2 SW 28 48 15 26 1019.9 1021.0 0.0
05/04:27am 6.3 -0.4 3.6 83 1.2 SW 28 48 15 26 1019.7 1020.9 0.0
05/04:00am 6.3 0.7 3.5 82 1.2 SW 22 37 12 20 1019.9 1021.0 0.0
05/03:30am 6.4 0.8 3.4 81 1.3 SW 22 35 12 19 1020.0 1021.1 0.0
05/03:00am 6.6 1.6 3.6 81 1.3 SW 19 32 10 17 1020.2 1021.3 0.0
05/02:30am 6.6 1.6 3.4 80 1.4 SW 19 41 10 22 1020.2 1021.3 0.0
05/02:00am 6.5 1.2 3.1 79 1.5 SW 20 37 11 20 1020.1 1021.2 0.0
05/01:30am 6.7 0.7 3.3 79 1.5 SW 24 35 13 19 1020.1 1021.2 0.0
05/01:00am 6.9 0.9 3.5 79 1.5 SW 24 43 13 23 1020.0 1021.1 0.0
05/12:30am 7.0 -0.1 3.8 80 1.4 SW 30 50 16 27 1019.7 1020.9 0.0
05/12:02am 7.4 0.0 4.2 80 1.5 SW 32 50 17 27 1019.7 1020.9 0.0
05/12:00am 7.3 -0.1 4.1 80 1.4 SW 32 46 17 25 1019.6 1020.7 0.0
 
Date/Time
EST
Temp
°C
App
Temp
°C
Dew
Point
°C
Rel
Hum
%
Delta-T
°C
Wind Press
QNH
hPa
Press
MSL
hPa
Rain since
9am
mm
Dir  Spd
km/h
Gust
km/h
Spd
kts
Gust
kts
04/11:45pm 7.4 0.5 4.7 83 1.2 SW 30 48 16 26 1019.6 1020.7 0.0
04/11:30pm 7.5 0.3 4.8 83 1.2 SW 32 46 17 25 1019.7 1020.9 0.0
04/11:26pm 7.5 1.0 4.8 83 1.2 SW 28 46 15 25 1019.6 1020.7 0.0
04/11:00pm 7.3 0.5 5.0 85 1.1 SW 30 44 16 24 1019.5 1020.6 0.0
04/10:30pm 7.5 1.0 4.6 82 1.3 WSW 28 39 15 21 1019.7 1020.9 0.0
04/10:00pm 7.8 0.9 4.4 79 1.6 SW 30 44 16 24 1019.3 1020.4 0.0
04/09:30pm 7.8 2.0 4.2 78 1.6 SW 24 35 13 19 1019.4 1020.5 0.0
04/09:00pm 8.0 0.6 4.0 76 1.8 SW 32 46 17 25 1019.1 1020.2 0.0
04/08:44pm 8.1 1.5 4.1 76 1.8 SW 28 48 15 26 1019.0 1020.1 0.0
04/08:30pm 8.0 2.1 4.0 76 1.8 SW 24 37 13 20 1019.0 1020.1 0.0
04/08:00pm 7.9 1.2 3.9 76 1.8 WSW 28 43 15 23 1018.9 1020.0 0.0
04/07:30pm 7.9 1.2 3.9 76 1.8 SW 28 39 15 21 1018.8 1019.9 0.0
04/07:00pm 7.8 1.9 4.0 77 1.7 SW 24 35 13 19 1018.7 1019.8 0.0
04/06:30pm 7.4 1.6 4.2 80 1.5 WSW 24 35 13 19 1018.6 1019.6 0.0
04/06:00pm 7.8 2.6 3.8 76 1.8 SW 20 32 11 17 1018.5 1019.5 0.0
04/05:30pm 7.9 1.6 3.6 74 1.9 WSW 26 41 14 22 1018.0 1019.1 0.0
04/05:00pm 7.8 2.2 3.7 75 1.8 WSW 22 33 12 18 1017.9 1019.0 0.0
04/04:30pm 7.8 1.5 3.7 75 1.8 WSW 26 35 14 19 1017.8 1018.9 0.0
04/04:00pm 7.8 2.3 3.8 76 1.8 SW 22 33 12 18 1018.0 1019.1 0.0
04/03:30pm 8.0 2.5 4.0 76 1.8 WSW 22 32 12 17 1017.8 1018.9 0.0
04/03:00pm 7.8 2.9 4.2 78 1.6 WSW 19 26 10 14 1017.5 1018.6 0.0
04/02:30pm 7.2 2.6 5.7 90 0.7 WSW 19 24 10 13 1017.6 1018.7 0.0
04/02:00pm 7.0 1.7 4.8 86 1.0 WSW 22 33 12 18 1017.8 1018.9 0.0
04/01:30pm 7.2 2.3 4.2 81 1.4 SW 19 33 10 18 1018.0 1019.1 0.0
04/01:00pm 7.1 1.5 3.7 79 1.5 WSW 22 33 12 18 1018.3 1019.4 0.0
04/12:30pm 6.8 1.6 3.4 79 1.5 WSW 20 28 11 15 1018.6 1019.6 0.0
04/12:00pm 6.0 1.0 3.5 84 1.1 WSW 19 30 10 16 1019.4 1020.5 0.0
04/11:30am 5.0 -0.6 3.3 89 0.7 WSW 22 33 12 18 1020.0 1021.1 0.0
04/11:00am 4.8 -0.5 2.8 87 0.9 WSW 20 35 11 19 1020.3 1021.4 0.0
04/10:30am 5.2 -1.5 1.7 78 1.5 WSW 26 35 14 19 1020.2 1021.3 0.0
04/10:00am 4.5 -2.6 1.5 81 1.2 WSW 28 39 15 21 1020.1 1021.2 0.0
04/09:30am 3.8 -1.9 0.8 81 1.2 SW 20 32 11 17 1020.2 1021.3 0.0
04/09:00am 3.5 -2.1 1.1 84 1.0 WSW 20 28 11 15 1020.0 1021.1 6.2
04/08:30am 3.0 -3.1 0.7 85 0.9 SW 22 35 12 19 1020.0 1021.1 6.2
04/08:00am 2.8 -2.7 0.9 87 0.8 SW 19 24 10 13 1019.9 1021.0 6.2

Other formats

Comma delimited format used in spreadsheet applications
http://www.bom.gov.au/fwo/IDV60801/IDV60801.94913.axf

JavaScript Object Notation format (JSON) in row-major order
http://www.bom.gov.au/fwo/IDV60801/IDV60801.94913.json

Data quality

Most of these data are generated automatically and are frequently updated. Quality checks on data are not normally performed. It is possible for incorrect values to appear. Refer to information at About Latest Weather Observations and please check the disclaimer before using these data.